Alahan — TCSH9 — position and weather

sailwx.info

Track history (hours):
 
Tides and Currents Weather Stations Pressure Air Temp Water Temp Dewpoint Dewpoint Depression Visibility Wind Speed Wind Dir Waves Ship Positions

Alahan

Last reported at 2017-Oct-19 18:40 UTC. Time now 2017-Oct-20 16:15 UTC.
Position N 39°49' E 025°44'.

Length 104 m; draft 5 m.

Type: Tanker. MMSI: 271042974.

Date/timePositionNaut miles runAvg speedWind from/ knotsBaromVisibWave heightAir tempDewpointWater temp
2017-Oct-19 18:40N 39°49' E 025°44'411.3
2017-Oct-19 18:21N 39°52' E 025°47'611.2
2017-Oct-19 17:50N 39°56' E 025°52'410.8
2017-Oct-19 17:29N 39°59' E 025°55'14012.0
2017-Oct-19 05:47N 40°40' E 028°50'412.4
2017-Oct-19 05:29N 40°41' E 028°55'812.2
2017-Oct-19 04:50N 40°43' E 029°05'412.2
2017-Oct-19 04:30N 40°44' E 029°11'612.3
2017-Oct-19 04:00N 40°45' E 029°19'6 0.3
2017-Oct-18 07:09N 40°42' E 029°25'1 5.9
2017-Oct-18 06:56N 40°43' E 029°23'4 9.4
2017-Oct-18 06:30N 40°43' E 029°18'3 6.1
2017-Oct-18 05:59N 40°43' E 029°14'5 9.9
2017-Oct-18 05:29N 40°42' E 029°07'612.4
2017-Oct-18 04:59N 40°41' E 028°59'  
2017-Oct-15 20:29N 39°57' E 025°52'14710.9
2017-Oct-15 06:55N 40°43' E 028°56'512.5
2017-Oct-15 06:30N 40°44' E 029°03'612.2
2017-Oct-15 05:59N 40°44' E 029°11'612.2
2017-Oct-15 05:30N 40°44' E 029°18'5 9.2
2017-Oct-15 04:57N 40°42' E 029°25'0 0.0
2017-Oct-14 09:38N 40°42' E 029°25'0 3.2
2017-Oct-14 09:29N 40°42' E 029°25'4 8.5
2017-Oct-14 09:00N 40°43' E 029°19'713.1
2017-Oct-14 08:30N 40°42' E 029°11'  
2017-Oct-10 21:56N 40°42' E 029°25'0 0.0
2017-Oct-10 19:49N 40°42' E 029°25'0 0.0
2017-Oct-10 19:28N 40°42' E 029°25'0 0.0
2017-Oct-10 18:55N 40°42' E 029°25'0 0.0
2017-Oct-10 18:25N 40°42' E 029°25'0 0.0
2017-Oct-10 17:48N 40°42' E 029°25'0 0.0
2017-Oct-10 17:24N 40°42' E 029°25'0 0.0
2017-Oct-10 13:53N 40°42' E 029°25'0 0.0
2017-Oct-10 12:53N 40°42' E 029°25'0 0.3
2017-Oct-10 12:28N 40°42' E 029°25'3 6.5
2017-Oct-10 12:00N 40°43' E 029°21'4 8.5
2017-Oct-10 11:30N 40°45' E 029°16'712.7
2017-Oct-10 10:57N 40°48' E 029°07'812.1
2017-Oct-10 10:19N 40°51' E 028°58'511.8
2017-Oct-10 09:51N 40°56' E 028°57'  
Track history (hours):
 
Tides and Currents Weather Stations Pressure Air Temp Water Temp Dewpoint Dewpoint Depression Visibility Wind Speed Wind Dir Waves Ship Positions

Alahan

Last reported at 2017-Oct-19 18:40 UTC. Time now 2017-Oct-20 16:15 UTC.
Position N 39°49' E 025°44'.

Length 104 m; draft 5 m.

Type: Tanker. MMSI: 271042974.

Date/timePositionNaut miles runAvg speedWind from/ knotsBaromVisibWave heightAir tempDewpointWater temp
2017-Oct-19 18:40N 39°49' E 025°44'411.3
2017-Oct-19 18:21N 39°52' E 025°47'611.2
2017-Oct-19 17:50N 39°56' E 025°52'410.8
2017-Oct-19 17:29N 39°59' E 025°55'14012.0
2017-Oct-19 05:47N 40°40' E 028°50'412.4
2017-Oct-19 05:29N 40°41' E 028°55'812.2
2017-Oct-19 04:50N 40°43' E 029°05'412.2
2017-Oct-19 04:30N 40°44' E 029°11'612.3
2017-Oct-19 04:00N 40°45' E 029°19'6 0.3
2017-Oct-18 07:09N 40°42' E 029°25'1 5.9
2017-Oct-18 06:56N 40°43' E 029°23'4 9.4
2017-Oct-18 06:30N 40°43' E 029°18'3 6.1
2017-Oct-18 05:59N 40°43' E 029°14'5 9.9
2017-Oct-18 05:29N 40°42' E 029°07'612.4
2017-Oct-18 04:59N 40°41' E 028°59'  
2017-Oct-15 20:29N 39°57' E 025°52'14710.9
2017-Oct-15 06:55N 40°43' E 028°56'512.5
2017-Oct-15 06:30N 40°44' E 029°03'612.2
2017-Oct-15 05:59N 40°44' E 029°11'612.2
2017-Oct-15 05:30N 40°44' E 029°18'5 9.2
2017-Oct-15 04:57N 40°42' E 029°25'0 0.0
2017-Oct-14 09:38N 40°42' E 029°25'0 3.2
2017-Oct-14 09:29N 40°42' E 029°25'4 8.5
2017-Oct-14 09:00N 40°43' E 029°19'713.1
2017-Oct-14 08:30N 40°42' E 029°11'  
2017-Oct-10 21:56N 40°42' E 029°25'0 0.0
2017-Oct-10 19:49N 40°42' E 029°25'0 0.0
2017-Oct-10 19:28N 40°42' E 029°25'0 0.0
2017-Oct-10 18:55N 40°42' E 029°25'0 0.0
2017-Oct-10 18:25N 40°42' E 029°25'0 0.0
2017-Oct-10 17:48N 40°42' E 029°25'0 0.0
2017-Oct-10 17:24N 40°42' E 029°25'0 0.0
2017-Oct-10 13:53N 40°42' E 029°25'0 0.0
2017-Oct-10 12:53N 40°42' E 029°25'0 0.3
2017-Oct-10 12:28N 40°42' E 029°25'3 6.5
2017-Oct-10 12:00N 40°43' E 029°21'4 8.5
2017-Oct-10 11:30N 40°45' E 029°16'712.7
2017-Oct-10 10:57N 40°48' E 029°07'812.1
2017-Oct-10 10:19N 40°51' E 028°58'511.8
2017-Oct-10 09:51N 40°56' E 028°57'  

Dump ship's entire track history